sensor_id;sensor_type;location;lat;lon;timestamp;temperature;humidity
11399;DHT22;5755;48.116;11.608;2023-11-21T00:00:49;8.10;95.70
11399;DHT22;5755;48.116;11.608;2023-11-21T00:03:16;8.10;96.00
11399;DHT22;5755;48.116;11.608;2023-11-21T00:05:44;8.10;96.20
11399;DHT22;5755;48.116;11.608;2023-11-21T00:08:11;8.10;96.50
11399;DHT22;5755;48.116;11.608;2023-11-21T00:10:38;8.10;96.90
11399;DHT22;5755;48.116;11.608;2023-11-21T00:13:07;8.00;97.20
11399;DHT22;5755;48.116;11.608;2023-11-21T00:15:33;8.00;98.00
11399;DHT22;5755;48.116;11.608;2023-11-21T00:18:00;8.00;98.00
11399;DHT22;5755;48.116;11.608;2023-11-21T00:20:27;7.90;98.30
11399;DHT22;5755;48.116;11.608;2023-11-21T00:22:54;7.90;98.40
11399;DHT22;5755;48.116;11.608;2023-11-21T00:25:21;7.90;99.00
11399;DHT22;5755;48.116;11.608;2023-11-21T00:27:48;7.90;99.00
11399;DHT22;5755;48.116;11.608;2023-11-21T00:30:17;7.90;99.30
11399;DHT22;5755;48.116;11.608;2023-11-21T00:32:58;7.90;99.30
11399;DHT22;5755;48.116;11.608;2023-11-21T00:35:26;7.90;99.10
11399;DHT22;5755;48.116;11.608;2023-11-21T00:37:53;7.90;99.00
11399;DHT22;5755;48.116;11.608;2023-11-21T00:40:46;7.90;99.00
11399;DHT22;5755;48.116;11.608;2023-11-21T00:43:13;7.90;99.60
11399;DHT22;5755;48.116;11.608;2023-11-21T00:45:42;8.10;99.20
11399;DHT22;5755;48.116;11.608;2023-11-21T00:48:23;8.00;98.40
11399;DHT22;5755;48.116;11.608;2023-11-21T00:50:49;8.00;98.70
11399;DHT22;5755;48.116;11.608;2023-11-21T00:53:16;8.20;99.20
11399;DHT22;5755;48.116;11.608;2023-11-21T00:55:43;8.10;99.40
11399;DHT22;5755;48.116;11.608;2023-11-21T00:58:13;8.20;99.20
11399;DHT22;5755;48.116;11.608;2023-11-21T01:00:41;8.20;98.90
11399;DHT22;5755;48.116;11.608;2023-11-21T01:03:23;8.10;99.00
11399;DHT22;5755;48.116;11.608;2023-11-21T01:06:12;8.10;99.20
11399;DHT22;5755;48.116;11.608;2023-11-21T01:08:38;8.10;99.40
11399;DHT22;5755;48.116;11.608;2023-11-21T01:11:05;8.20;99.20
11399;DHT22;5755;48.116;11.608;2023-11-21T01:13:33;8.10;99.30
11399;DHT22;5755;48.116;11.608;2023-11-21T01:16:02;8.10;99.30
11399;DHT22;5755;48.116;11.608;2023-11-21T01:18:52;8.00;99.90
11399;DHT22;5755;48.116;11.608;2023-11-21T01:21:19;7.90;99.90
11399;DHT22;5755;48.116;11.608;2023-11-21T01:23:48;7.80;99.90
11399;DHT22;5755;48.116;11.608;2023-11-21T01:26:15;7.60;99.90
11399;DHT22;5755;48.116;11.608;2023-11-21T01:28:42;7.50;99.90
11399;DHT22;5755;48.116;11.608;2023-11-21T01:31:10;7.40;99.90
11399;DHT22;5755;48.116;11.608;2023-11-21T01:33:58;7.50;99.90
11399;DHT22;5755;48.116;11.608;2023-11-21T01:36:30;7.40;99.90
11399;DHT22;5755;48.116;11.608;2023-11-21T01:38:57;7.40;99.90
11399;DHT22;5755;48.116;11.608;2023-11-21T01:41:25;7.60;99.90
11399;DHT22;5755;48.116;11.608;2023-11-21T01:43:52;7.50;99.90
11399;DHT22;5755;48.116;11.608;2023-11-21T01:46:21;7.40;99.90
11399;DHT22;5755;48.116;11.608;2023-11-21T01:49:04;7.20;99.90
11399;DHT22;5755;48.116;11.608;2023-11-21T01:51:31;7.20;99.90
11399;DHT22;5755;48.116;11.608;2023-11-21T01:53:58;7.30;99.90
11399;DHT22;5755;48.116;11.608;2023-11-21T01:56:25;7.30;99.90
11399;DHT22;5755;48.116;11.608;2023-11-21T01:59:06;7.20;99.90
11399;DHT22;5755;48.116;11.608;2023-11-21T02:01:35;7.20;99.90
11399;DHT22;5755;48.116;11.608;2023-11-21T02:04:01;7.30;99.90
11399;DHT22;5755;48.116;11.608;2023-11-21T02:06:29;7.40;99.90
11399;DHT22;5755;48.116;11.608;2023-11-21T02:08:56;7.50;99.90
11399;DHT22;5755;48.116;11.608;2023-11-21T02:11:25;7.50;99.90
11399;DHT22;5755;48.116;11.608;2023-11-21T02:13:52;7.50;99.90
11399;DHT22;5755;48.116;11.608;2023-11-21T02:16:20;7.60;99.90
11399;DHT22;5755;48.116;11.608;2023-11-21T02:21:53;7.40;99.90
11399;DHT22;5755;48.116;11.608;2023-11-21T02:24:22;7.30;99.90
11399;DHT22;5755;48.116;11.608;2023-11-21T02:26:50;7.20;99.90
11399;DHT22;5755;48.116;11.608;2023-11-21T02:29:25;7.20;99.90
11399;DHT22;5755;48.116;11.608;2023-11-21T02:31:54;7.20;99.90
11399;DHT22;5755;48.116;11.608;2023-11-21T02:34:22;7.30;99.90
11399;DHT22;5755;48.116;11.608;2023-11-21T02:36:50;7.30;99.90
11399;DHT22;5755;48.116;11.608;2023-11-21T02:39:18;7.50;99.90
11399;DHT22;5755;48.116;11.608;2023-11-21T02:41:49;7.50;99.90
11399;DHT22;5755;48.116;11.608;2023-11-21T02:44:16;7.60;99.90
11399;DHT22;5755;48.116;11.608;2023-11-21T02:46:42;7.60;99.90
11399;DHT22;5755;48.116;11.608;2023-11-21T02:49:09;7.70;99.90
11399;DHT22;5755;48.116;11.608;2023-11-21T02:51:37;7.70;99.90
11399;DHT22;5755;48.116;11.608;2023-11-21T02:54:05;7.70;99.90
11399;DHT22;5755;48.116;11.608;2023-11-21T02:56:33;7.60;99.90
11399;DHT22;5755;48.116;11.608;2023-11-21T02:59:02;7.50;99.90
11399;DHT22;5755;48.116;11.608;2023-11-21T03:01:43;7.40;99.90
11399;DHT22;5755;48.116;11.608;2023-11-21T03:04:09;7.40;99.90
11399;DHT22;5755;48.116;11.608;2023-11-21T03:06:36;7.60;99.90
11399;DHT22;5755;48.116;11.608;2023-11-21T03:09:03;7.70;99.90
11399;DHT22;5755;48.116;11.608;2023-11-21T03:11:32;7.60;99.90
11399;DHT22;5755;48.116;11.608;2023-11-21T03:14:02;7.70;99.90
11399;DHT22;5755;48.116;11.608;2023-11-21T03:16:29;7.70;99.90
11399;DHT22;5755;48.116;11.608;2023-11-21T03:18:56;7.70;99.90
11399;DHT22;5755;48.116;11.608;2023-11-21T03:21:24;7.60;99.90
11399;DHT22;5755;48.116;11.608;2023-11-21T03:23:51;7.50;99.90
11399;DHT22;5755;48.116;11.608;2023-11-21T03:26:18;7.50;99.90
11399;DHT22;5755;48.116;11.608;2023-11-21T03:28:45;7.40;99.90
11399;DHT22;5755;48.116;11.608;2023-11-21T03:31:14;7.60;99.90
11399;DHT22;5755;48.116;11.608;2023-11-21T03:33:49;7.50;99.90
11399;DHT22;5755;48.116;11.608;2023-11-21T03:36:16;7.60;99.90
11399;DHT22;5755;48.116;11.608;2023-11-21T03:38:43;7.50;99.90
11399;DHT22;5755;48.116;11.608;2023-11-21T03:41:10;7.50;99.90
11399;DHT22;5755;48.116;11.608;2023-11-21T03:43:37;7.60;99.90
11399;DHT22;5755;48.116;11.608;2023-11-21T03:46:19;7.70;99.90
11399;DHT22;5755;48.116;11.608;2023-11-21T03:49:08;7.70;99.90
11399;DHT22;5755;48.116;11.608;2023-11-21T03:51:36;7.70;99.90
11399;DHT22;5755;48.116;11.608;2023-11-21T03:54:03;7.70;99.90
11399;DHT22;5755;48.116;11.608;2023-11-21T03:56:30;7.70;99.90
11399;DHT22;5755;48.116;11.608;2023-11-21T03:58:57;7.70;99.90
11399;DHT22;5755;48.116;11.608;2023-11-21T04:01:26;7.70;99.90
11399;DHT22;5755;48.116;11.608;2023-11-21T04:04:06;7.60;99.90
11399;DHT22;5755;48.116;11.608;2023-11-21T04:06:33;7.50;99.90
11399;DHT22;5755;48.116;11.608;2023-11-21T04:09:01;7.60;99.90
11399;DHT22;5755;48.116;11.608;2023-11-21T04:11:42;7.60;99.90
11399;DHT22;5755;48.116;11.608;2023-11-21T04:14:11;7.70;99.90
11399;DHT22;5755;48.116;11.608;2023-11-21T04:16:40;7.70;99.90
11399;DHT22;5755;48.116;11.608;2023-11-21T04:19:21;7.60;99.90
11399;DHT22;5755;48.116;11.608;2023-11-21T04:21:48;7.60;99.90
11399;DHT22;5755;48.116;11.608;2023-11-21T04:24:15;7.60;99.90
11399;DHT22;5755;48.116;11.608;2023-11-21T04:26:43;7.60;99.90
11399;DHT22;5755;48.116;11.608;2023-11-21T04:29:10;7.60;99.90
11399;DHT22;5755;48.116;11.608;2023-11-21T04:31:39;7.50;99.90
11399;DHT22;5755;48.116;11.608;2023-11-21T04:34:19;7.60;99.90
11399;DHT22;5755;48.116;11.608;2023-11-21T04:36:46;7.70;99.90
11399;DHT22;5755;48.116;11.608;2023-11-21T04:39:13;7.70;99.90
11399;DHT22;5755;48.116;11.608;2023-11-21T04:41:40;7.70;99.90
11399;DHT22;5755;48.116;11.608;2023-11-21T04:44:08;7.80;99.90
11399;DHT22;5755;48.116;11.608;2023-11-21T04:46:35;7.80;99.90
11399;DHT22;5755;48.116;11.608;2023-11-21T04:49:03;7.80;99.90
11399;DHT22;5755;48.116;11.608;2023-11-21T04:51:31;7.80;99.90
11399;DHT22;5755;48.116;11.608;2023-11-21T04:53:58;7.90;99.90
11399;DHT22;5755;48.116;11.608;2023-11-21T04:56:25;7.80;99.90
11399;DHT22;5755;48.116;11.608;2023-11-21T04:58:52;7.70;99.90
11399;DHT22;5755;48.116;11.608;2023-11-21T05:01:19;7.80;99.90
11399;DHT22;5755;48.116;11.608;2023-11-21T05:03:46;7.90;99.80
11399;DHT22;5755;48.116;11.608;2023-11-21T05:06:16;7.70;99.80
11399;DHT22;5755;48.116;11.608;2023-11-21T05:08:45;7.70;99.90
11399;DHT22;5755;48.116;11.608;2023-11-21T05:11:23;7.70;99.90
11399;DHT22;5755;48.116;11.608;2023-11-21T05:13:50;7.60;99.90
11399;DHT22;5755;48.116;11.608;2023-11-21T05:16:17;7.60;99.90
11399;DHT22;5755;48.116;11.608;2023-11-21T05:18:44;7.50;99.90
11399;DHT22;5755;48.116;11.608;2023-11-21T05:21:11;7.50;99.90
11399;DHT22;5755;48.116;11.608;2023-11-21T05:23:39;7.50;99.90
11399;DHT22;5755;48.116;11.608;2023-11-21T05:26:20;7.40;99.90
11399;DHT22;5755;48.116;11.608;2023-11-21T05:28:47;7.50;99.90
11399;DHT22;5755;48.116;11.608;2023-11-21T05:31:15;7.60;99.90
11399;DHT22;5755;48.116;11.608;2023-11-21T05:33:42;7.60;99.90
11399;DHT22;5755;48.116;11.608;2023-11-21T05:36:09;7.60;99.90
11399;DHT22;5755;48.116;11.608;2023-11-21T05:38:37;7.60;99.90
11399;DHT22;5755;48.116;11.608;2023-11-21T05:41:19;7.60;99.90
11399;DHT22;5755;48.116;11.608;2023-11-21T05:43:46;7.70;99.90
11399;DHT22;5755;48.116;11.608;2023-11-21T05:46:13;7.70;99.90
11399;DHT22;5755;48.116;11.608;2023-11-21T05:48:40;7.70;99.90
11399;DHT22;5755;48.116;11.608;2023-11-21T05:51:07;7.70;99.90
11399;DHT22;5755;48.116;11.608;2023-11-21T05:53:34;7.70;99.90
11399;DHT22;5755;48.116;11.608;2023-11-21T05:56:02;7.70;99.90
11399;DHT22;5755;48.116;11.608;2023-11-21T05:58:31;7.60;99.90
11399;DHT22;5755;48.116;11.608;2023-11-21T06:00:58;7.60;99.90
11399;DHT22;5755;48.116;11.608;2023-11-21T06:03:26;7.60;99.90
11399;DHT22;5755;48.116;11.608;2023-11-21T06:05:53;7.60;99.90
11399;DHT22;5755;48.116;11.608;2023-11-21T06:08:21;7.70;99.90
11399;DHT22;5755;48.116;11.608;2023-11-21T06:10:47;7.70;99.90
11399;DHT22;5755;48.116;11.608;2023-11-21T06:13:15;7.80;99.90
11399;DHT22;5755;48.116;11.608;2023-11-21T06:15:44;7.80;99.90
11399;DHT22;5755;48.116;11.608;2023-11-21T06:18:26;7.80;99.90
11399;DHT22;5755;48.116;11.608;2023-11-21T06:21:20;7.70;99.90
11399;DHT22;5755;48.116;11.608;2023-11-21T06:23:46;7.60;99.90
11399;DHT22;5755;48.116;11.608;2023-11-21T06:26:13;7.50;99.90
11399;DHT22;5755;48.116;11.608;2023-11-21T06:28:40;7.60;99.90
11399;DHT22;5755;48.116;11.608;2023-11-21T06:31:09;7.60;99.90
11399;DHT22;5755;48.116;11.608;2023-11-21T06:33:36;7.80;99.90
11399;DHT22;5755;48.116;11.608;2023-11-21T06:36:06;7.90;99.90
11399;DHT22;5755;48.116;11.608;2023-11-21T06:38:33;7.80;99.90
11399;DHT22;5755;48.116;11.608;2023-11-21T06:41:00;7.80;99.90
11399;DHT22;5755;48.116;11.608;2023-11-21T06:43:29;7.60;99.90
11399;DHT22;5755;48.116;11.608;2023-11-21T06:45:56;7.60;99.90
11399;DHT22;5755;48.116;11.608;2023-11-21T06:48:25;7.60;99.90
11399;DHT22;5755;48.116;11.608;2023-11-21T06:50:52;7.60;99.90
11399;DHT22;5755;48.116;11.608;2023-11-21T06:53:19;7.70;99.90
11399;DHT22;5755;48.116;11.608;2023-11-21T06:55:46;7.60;99.90
11399;DHT22;5755;48.116;11.608;2023-11-21T06:58:13;7.60;99.90
11399;DHT22;5755;48.116;11.608;2023-11-21T07:00:41;7.80;99.90
11399;DHT22;5755;48.116;11.608;2023-11-21T07:03:12;7.80;99.70
11399;DHT22;5755;48.116;11.608;2023-11-21T07:05:40;7.70;99.90
11399;DHT22;5755;48.116;11.608;2023-11-21T07:08:07;7.90;99.40
11399;DHT22;5755;48.116;11.608;2023-11-21T07:10:34;7.80;99.30
11399;DHT22;5755;48.116;11.608;2023-11-21T07:13:15;7.80;99.40
11399;DHT22;5755;48.116;11.608;2023-11-21T07:15:42;7.80;99.00
11399;DHT22;5755;48.116;11.608;2023-11-21T07:18:09;7.80;99.10
11399;DHT22;5755;48.116;11.608;2023-11-21T07:20:37;7.90;99.10
11399;DHT22;5755;48.116;11.608;2023-11-21T07:23:05;7.90;99.10
11399;DHT22;5755;48.116;11.608;2023-11-21T07:25:32;7.80;99.10
11399;DHT22;5755;48.116;11.608;2023-11-21T07:27:59;7.90;99.30
11399;DHT22;5755;48.116;11.608;2023-11-21T07:30:26;7.90;99.00
11399;DHT22;5755;48.116;11.608;2023-11-21T07:32:53;7.90;98.70
11399;DHT22;5755;48.116;11.608;2023-11-21T07:35:21;8.10;98.30
11399;DHT22;5755;48.116;11.608;2023-11-21T07:37:48;8.10;98.10
11399;DHT22;5755;48.116;11.608;2023-11-21T07:40:19;8.10;98.30
11399;DHT22;5755;48.116;11.608;2023-11-21T07:43:15;8.00;98.30
11399;DHT22;5755;48.116;11.608;2023-11-21T07:45:45;8.00;98.00
11399;DHT22;5755;48.116;11.608;2023-11-21T07:48:11;8.00;97.60
11399;DHT22;5755;48.116;11.608;2023-11-21T07:50:38;7.90;97.90
11399;DHT22;5755;48.116;11.608;2023-11-21T07:53:05;8.10;97.30
11399;DHT22;5755;48.116;11.608;2023-11-21T07:55:34;8.10;97.10
11399;DHT22;5755;48.116;11.608;2023-11-21T07:58:21;8.20;97.40
11399;DHT22;5755;48.116;11.608;2023-11-21T08:00:48;8.30;96.40
11399;DHT22;5755;48.116;11.608;2023-11-21T08:03:15;8.30;96.70
11399;DHT22;5755;48.116;11.608;2023-11-21T08:05:43;8.30;97.00
11399;DHT22;5755;48.116;11.608;2023-11-21T08:08:10;8.20;97.10
11399;DHT22;5755;48.116;11.608;2023-11-21T08:10:38;8.20;97.20
11399;DHT22;5755;48.116;11.608;2023-11-21T08:13:23;8.20;96.90
11399;DHT22;5755;48.116;11.608;2023-11-21T08:15:50;8.40;97.00
11399;DHT22;5755;48.116;11.608;2023-11-21T08:18:21;8.50;96.50
11399;DHT22;5755;48.116;11.608;2023-11-21T08:20:48;8.50;95.80
11399;DHT22;5755;48.116;11.608;2023-11-21T08:23:15;8.70;95.90
11399;DHT22;5755;48.116;11.608;2023-11-21T08:25:44;8.70;95.50
11399;DHT22;5755;48.116;11.608;2023-11-21T08:28:13;8.70;95.90
11399;DHT22;5755;48.116;11.608;2023-11-21T08:30:43;8.70;95.50
11399;DHT22;5755;48.116;11.608;2023-11-21T08:33:10;8.60;95.40
11399;DHT22;5755;48.116;11.608;2023-11-21T08:35:38;8.50;95.80
11399;DHT22;5755;48.116;11.608;2023-11-21T08:38:07;8.60;95.80
11399;DHT22;5755;48.116;11.608;2023-11-21T08:40:35;8.60;95.80
11399;DHT22;5755;48.116;11.608;2023-11-21T08:43:03;8.50;95.80
11399;DHT22;5755;48.116;11.608;2023-11-21T08:45:44;8.50;95.60
11399;DHT22;5755;48.116;11.608;2023-11-21T08:48:11;8.50;95.20
11399;DHT22;5755;48.116;11.608;2023-11-21T08:50:38;8.60;95.40
11399;DHT22;5755;48.116;11.608;2023-11-21T08:53:05;8.50;95.30
11399;DHT22;5755;48.116;11.608;2023-11-21T08:55:32;8.50;95.80
11399;DHT22;5755;48.116;11.608;2023-11-21T08:58:14;8.60;95.80
11399;DHT22;5755;48.116;11.608;2023-11-21T09:00:43;8.70;95.70
11399;DHT22;5755;48.116;11.608;2023-11-21T09:03:11;9.10;95.20
11399;DHT22;5755;48.116;11.608;2023-11-21T09:05:39;9.60;94.50
11399;DHT22;5755;48.116;11.608;2023-11-21T09:08:07;10.00;91.80
11399;DHT22;5755;48.116;11.608;2023-11-21T09:10:52;10.10;91.10
11399;DHT22;5755;48.116;11.608;2023-11-21T09:17:11;10.20;90.30
11399;DHT22;5755;48.116;11.608;2023-11-21T09:19:55;10.20;90.40
11399;DHT22;5755;48.116;11.608;2023-11-21T09:22:36;10.30;91.10
11399;DHT22;5755;48.116;11.608;2023-11-21T09:25:26;10.20;91.20
11399;DHT22;5755;48.116;11.608;2023-11-21T09:31:14;10.10;90.30
11399;DHT22;5755;48.116;11.608;2023-11-21T09:33:56;10.10;90.30
11399;DHT22;5755;48.116;11.608;2023-11-21T09:36:26;10.00;91.10
11399;DHT22;5755;48.116;11.608;2023-11-21T09:39:07;10.00;90.60
11399;DHT22;5755;48.116;11.608;2023-11-21T09:41:43;9.90;91.50
11399;DHT22;5755;48.116;11.608;2023-11-21T09:44:30;9.90;91.20
11399;DHT22;5755;48.116;11.608;2023-11-21T09:47:17;9.90;91.30
11399;DHT22;5755;48.116;11.608;2023-11-21T09:50:01;10.00;90.40
11399;DHT22;5755;48.116;11.608;2023-11-21T09:52:29;10.00;90.30
11399;DHT22;5755;48.116;11.608;2023-11-21T09:54:58;10.00;90.60
11399;DHT22;5755;48.116;11.608;2023-11-21T09:57:27;9.80;90.90
11399;DHT22;5755;48.116;11.608;2023-11-21T09:59:55;9.60;91.20
11399;DHT22;5755;48.116;11.608;2023-11-21T10:02:43;9.70;91.50
11399;DHT22;5755;48.116;11.608;2023-11-21T10:05:30;9.60;91.70
11399;DHT22;5755;48.116;11.608;2023-11-21T10:08:17;9.70;91.90
11399;DHT22;5755;48.116;11.608;2023-11-21T10:10:49;9.90;92.10
11399;DHT22;5755;48.116;11.608;2023-11-21T10:13:39;9.80;91.50
11399;DHT22;5755;48.116;11.608;2023-11-21T10:16:07;9.70;91.80
11399;DHT22;5755;48.116;11.608;2023-11-21T10:18:58;9.80;91.40
11399;DHT22;5755;48.116;11.608;2023-11-21T10:21:25;9.90;91.00
11399;DHT22;5755;48.116;11.608;2023-11-21T10:23:56;10.10;91.40
11399;DHT22;5755;48.116;11.608;2023-11-21T10:26:37;10.30;91.60
11399;DHT22;5755;48.116;11.608;2023-11-21T10:29:04;10.70;90.10
11399;DHT22;5755;48.116;11.608;2023-11-21T10:31:32;10.90;87.10
11399;DHT22;5755;48.116;11.608;2023-11-21T10:34:14;11.00;87.40
11399;DHT22;5755;48.116;11.608;2023-11-21T10:37:16;11.40;83.80
11399;DHT22;5755;48.116;11.608;2023-11-21T10:39:45;11.50;82.00
11399;DHT22;5755;48.116;11.608;2023-11-21T10:42:12;11.40;79.30
11399;DHT22;5755;48.116;11.608;2023-11-21T10:44:45;11.30;81.80
11399;DHT22;5755;48.116;11.608;2023-11-21T10:47:32;11.20;82.70
11399;DHT22;5755;48.116;11.608;2023-11-21T10:53:10;11.00;83.80
11399;DHT22;5755;48.116;11.608;2023-11-21T10:56:01;10.80;83.60
11399;DHT22;5755;48.116;11.608;2023-11-21T10:58:48;10.60;84.40
11399;DHT22;5755;48.116;11.608;2023-11-21T11:01:59;10.50;86.60
11399;DHT22;5755;48.116;11.608;2023-11-21T11:04:41;10.40;88.20
11399;DHT22;5755;48.116;11.608;2023-11-21T11:07:30;10.40;88.80
11399;DHT22;5755;48.116;11.608;2023-11-21T11:10:15;10.40;90.20
11399;DHT22;5755;48.116;11.608;2023-11-21T11:12:46;10.40;89.30
11399;DHT22;5755;48.116;11.608;2023-11-21T11:15:36;10.30;90.20
11399;DHT22;5755;48.116;11.608;2023-11-21T11:18:23;10.10;90.30
11399;DHT22;5755;48.116;11.608;2023-11-21T11:20:51;10.00;91.00
11399;DHT22;5755;48.116;11.608;2023-11-21T11:23:32;10.10;91.40
11399;DHT22;5755;48.116;11.608;2023-11-21T11:26:35;10.10;91.20
11399;DHT22;5755;48.116;11.608;2023-11-21T11:29:27;10.40;90.70
11399;DHT22;5755;48.116;11.608;2023-11-21T11:32:16;10.70;90.40
11399;DHT22;5755;48.116;11.608;2023-11-21T11:34:53;10.70;90.40
11399;DHT22;5755;48.116;11.608;2023-11-21T11:37:25;10.70;89.30
11399;DHT22;5755;48.116;11.608;2023-11-21T11:43:10;10.60;88.60
11399;DHT22;5755;48.116;11.608;2023-11-21T11:45:56;10.60;89.50
11399;DHT22;5755;48.116;11.608;2023-11-21T11:49:05;10.40;89.10
11399;DHT22;5755;48.116;11.608;2023-11-21T11:51:46;10.40;88.90
11399;DHT22;5755;48.116;11.608;2023-11-21T11:54:19;10.40;89.30
11399;DHT22;5755;48.116;11.608;2023-11-21T11:57:28;10.30;89.20
11399;DHT22;5755;48.116;11.608;2023-11-21T12:00:33;10.20;90.30
11399;DHT22;5755;48.116;11.608;2023-11-21T12:03:05;10.10;89.90
11399;DHT22;5755;48.116;11.608;2023-11-21T12:05:33;10.20;89.90
11399;DHT22;5755;48.116;11.608;2023-11-21T12:08:03;10.20;90.40
11399;DHT22;5755;48.116;11.608;2023-11-21T12:10:32;10.20;90.30
11399;DHT22;5755;48.116;11.608;2023-11-21T12:13:01;10.20;90.30
11399;DHT22;5755;48.116;11.608;2023-11-21T12:15:28;10.20;90.30
11399;DHT22;5755;48.116;11.608;2023-11-21T12:17:57;10.30;90.20
11399;DHT22;5755;48.116;11.608;2023-11-21T12:20:27;10.20;90.20
11399;DHT22;5755;48.116;11.608;2023-11-21T12:23:14;10.30;89.60
11399;DHT22;5755;48.116;11.608;2023-11-21T12:25:42;10.40;89.30
11399;DHT22;5755;48.116;11.608;2023-11-21T12:28:11;10.40;89.30
11399;DHT22;5755;48.116;11.608;2023-11-21T12:30:39;10.40;88.80
11399;DHT22;5755;48.116;11.608;2023-11-21T12:33:06;10.30;89.40
11399;DHT22;5755;48.116;11.608;2023-11-21T12:35:35;10.40;88.70
11399;DHT22;5755;48.116;11.608;2023-11-21T12:38:04;10.30;88.80
11399;DHT22;5755;48.116;11.608;2023-11-21T12:40:31;10.30;87.70
11399;DHT22;5755;48.116;11.608;2023-11-21T12:42:59;10.30;88.80
11399;DHT22;5755;48.116;11.608;2023-11-21T12:45:28;10.20;87.80
11399;DHT22;5755;48.116;11.608;2023-11-21T12:47:59;10.30;89.50
11399;DHT22;5755;48.116;11.608;2023-11-21T12:50:33;10.40;86.10
11399;DHT22;5755;48.116;11.608;2023-11-21T12:53:03;10.40;86.40
11399;DHT22;5755;48.116;11.608;2023-11-21T12:55:32;10.50;85.50
11399;DHT22;5755;48.116;11.608;2023-11-21T12:58:05;10.60;85.90
11399;DHT22;5755;48.116;11.608;2023-11-21T13:00:44;10.60;84.50
11399;DHT22;5755;48.116;11.608;2023-11-21T13:03:14;10.40;83.90
11399;DHT22;5755;48.116;11.608;2023-11-21T13:05:44;10.40;86.10
11399;DHT22;5755;48.116;11.608;2023-11-21T13:08:13;10.30;88.50
11399;DHT22;5755;48.116;11.608;2023-11-21T13:10:44;10.00;90.30
11399;DHT22;5755;48.116;11.608;2023-11-21T13:13:13;9.50;90.60
11399;DHT22;5755;48.116;11.608;2023-11-21T13:15:49;9.10;92.20
11399;DHT22;5755;48.116;11.608;2023-11-21T13:18:21;8.80;94.80
11399;DHT22;5755;48.116;11.608;2023-11-21T13:20:48;8.70;95.80
11399;DHT22;5755;48.116;11.608;2023-11-21T13:23:16;8.50;96.60
11399;DHT22;5755;48.116;11.608;2023-11-21T13:25:43;8.40;98.00
11399;DHT22;5755;48.116;11.608;2023-11-21T13:28:11;8.30;99.30
11399;DHT22;5755;48.116;11.608;2023-11-21T13:30:39;8.20;99.90
11399;DHT22;5755;48.116;11.608;2023-11-21T13:33:08;8.20;99.90
11399;DHT22;5755;48.116;11.608;2023-11-21T13:35:50;8.20;99.90
11399;DHT22;5755;48.116;11.608;2023-11-21T13:38:18;8.20;99.90
11399;DHT22;5755;48.116;11.608;2023-11-21T13:40:51;8.20;99.90
11399;DHT22;5755;48.116;11.608;2023-11-21T13:43:33;8.30;99.90
11399;DHT22;5755;48.116;11.608;2023-11-21T13:45:59;8.40;99.90
11399;DHT22;5755;48.116;11.608;2023-11-21T13:48:34;8.50;99.90
11399;DHT22;5755;48.116;11.608;2023-11-21T13:51:14;8.70;99.90
11399;DHT22;5755;48.116;11.608;2023-11-21T13:53:43;8.90;99.90
11399;DHT22;5755;48.116;11.608;2023-11-21T13:56:11;8.90;99.90
11399;DHT22;5755;48.116;11.608;2023-11-21T13:58:41;9.00;99.90
11399;DHT22;5755;48.116;11.608;2023-11-21T14:01:16;9.20;99.90
11399;DHT22;5755;48.116;11.608;2023-11-21T14:04:09;9.30;99.90
11399;DHT22;5755;48.116;11.608;2023-11-21T14:06:46;9.30;99.90
11399;DHT22;5755;48.116;11.608;2023-11-21T14:09:21;9.30;99.90
11399;DHT22;5755;48.116;11.608;2023-11-21T14:11:50;9.30;99.90
11399;DHT22;5755;48.116;11.608;2023-11-21T14:14:21;9.20;99.90
11399;DHT22;5755;48.116;11.608;2023-11-21T14:16:48;9.10;99.90
11399;DHT22;5755;48.116;11.608;2023-11-21T14:19:17;8.90;99.90
11399;DHT22;5755;48.116;11.608;2023-11-21T14:21:53;8.80;99.70
11399;DHT22;5755;48.116;11.608;2023-11-21T14:24:20;8.60;99.90
11399;DHT22;5755;48.116;11.608;2023-11-21T14:26:50;8.60;99.40
11399;DHT22;5755;48.116;11.608;2023-11-21T14:29:18;8.60;99.20
11399;DHT22;5755;48.116;11.608;2023-11-21T14:31:49;8.70;99.20
11399;DHT22;5755;48.116;11.608;2023-11-21T14:34:18;8.70;98.50
11399;DHT22;5755;48.116;11.608;2023-11-21T14:36:45;8.60;98.80
11399;DHT22;5755;48.116;11.608;2023-11-21T14:39:12;8.70;99.40
11399;DHT22;5755;48.116;11.608;2023-11-21T14:41:48;8.80;99.30
11399;DHT22;5755;48.116;11.608;2023-11-21T14:44:15;8.70;99.80
11399;DHT22;5755;48.116;11.608;2023-11-21T14:46:42;8.50;99.90
11399;DHT22;5755;48.116;11.608;2023-11-21T14:49:12;8.40;99.90
11399;DHT22;5755;48.116;11.608;2023-11-21T14:51:46;8.40;99.90
11399;DHT22;5755;48.116;11.608;2023-11-21T14:54:27;8.40;99.90
11399;DHT22;5755;48.116;11.608;2023-11-21T14:57:06;8.50;99.90
11399;DHT22;5755;48.116;11.608;2023-11-21T14:59:37;8.50;99.90
11399;DHT22;5755;48.116;11.608;2023-11-21T15:02:03;8.40;99.90
11399;DHT22;5755;48.116;11.608;2023-11-21T15:04:42;8.30;99.90
11399;DHT22;5755;48.116;11.608;2023-11-21T15:07:10;8.30;99.90
11399;DHT22;5755;48.116;11.608;2023-11-21T15:09:50;8.20;99.90
11399;DHT22;5755;48.116;11.608;2023-11-21T15:12:19;8.20;99.90
11399;DHT22;5755;48.116;11.608;2023-11-21T15:14:48;8.20;99.90
11399;DHT22;5755;48.116;11.608;2023-11-21T15:17:19;8.20;99.90
11399;DHT22;5755;48.116;11.608;2023-11-21T15:19:51;8.40;99.90
11399;DHT22;5755;48.116;11.608;2023-11-21T15:22:20;8.50;99.90
11399;DHT22;5755;48.116;11.608;2023-11-21T15:24:47;8.30;99.90
11399;DHT22;5755;48.116;11.608;2023-11-21T15:27:15;8.40;99.90
11399;DHT22;5755;48.116;11.608;2023-11-21T15:29:43;8.50;99.90
11399;DHT22;5755;48.116;11.608;2023-11-21T15:32:10;8.40;99.90
11399;DHT22;5755;48.116;11.608;2023-11-21T15:34:38;8.30;99.90
11399;DHT22;5755;48.116;11.608;2023-11-21T15:37:06;8.20;99.90
11399;DHT22;5755;48.116;11.608;2023-11-21T15:39:38;8.10;99.90
11399;DHT22;5755;48.116;11.608;2023-11-21T15:42:05;8.00;99.90
11399;DHT22;5755;48.116;11.608;2023-11-21T15:44:33;8.00;99.90
11399;DHT22;5755;48.116;11.608;2023-11-21T15:47:00;7.90;99.90
11399;DHT22;5755;48.116;11.608;2023-11-21T15:49:29;7.90;99.90
11399;DHT22;5755;48.116;11.608;2023-11-21T15:51:59;7.90;99.90
11399;DHT22;5755;48.116;11.608;2023-11-21T15:54:26;8.00;99.90
11399;DHT22;5755;48.116;11.608;2023-11-21T15:56:57;8.10;99.90
11399;DHT22;5755;48.116;11.608;2023-11-21T15:59:26;8.20;99.90
11399;DHT22;5755;48.116;11.608;2023-11-21T16:01:56;8.30;99.90
11399;DHT22;5755;48.116;11.608;2023-11-21T16:04:23;8.20;99.90
11399;DHT22;5755;48.116;11.608;2023-11-21T16:06:52;8.10;99.90
11399;DHT22;5755;48.116;11.608;2023-11-21T16:09:19;8.00;99.90
11399;DHT22;5755;48.116;11.608;2023-11-21T16:11:51;8.10;99.90
11399;DHT22;5755;48.116;11.608;2023-11-21T16:14:25;8.10;99.90
11399;DHT22;5755;48.116;11.608;2023-11-21T16:16:59;8.10;99.90
11399;DHT22;5755;48.116;11.608;2023-11-21T16:19:26;8.10;99.90
11399;DHT22;5755;48.116;11.608;2023-11-21T16:21:54;8.00;99.90
11399;DHT22;5755;48.116;11.608;2023-11-21T16:24:21;8.00;99.90
11399;DHT22;5755;48.116;11.608;2023-11-21T16:26:49;8.00;99.90